createdAt,value
2023-03-11T00:05:26.738Z,94292.00
2023-03-11T00:10:58.866Z,94288.00
2023-03-11T00:16:27.215Z,94294.00
2023-03-11T00:21:55.576Z,94333.00
2023-03-11T00:27:23.794Z,94323.00
2023-03-11T00:32:54.515Z,94316.00
2023-03-11T00:38:23.101Z,94329.00
2023-03-11T00:43:51.243Z,94333.00
2023-03-11T00:49:19.340Z,94345.00
2023-03-11T00:54:47.302Z,94356.00
2023-03-11T01:00:19.189Z,94371.00
2023-03-11T01:05:47.398Z,94372.00
2023-03-11T01:11:15.629Z,94380.00
2023-03-11T01:16:43.656Z,94368.00
2023-03-11T01:22:11.786Z,94374.00
2023-03-11T01:27:39.868Z,94364.00
2023-03-11T01:33:11.371Z,94370.00
2023-03-11T01:38:40.907Z,94375.00
2023-03-11T01:44:11.461Z,94395.00
2023-03-11T01:49:42.211Z,94389.00
2023-03-11T01:55:10.732Z,94399.00
2023-03-11T02:00:39.454Z,94384.00
2023-03-11T02:06:12.949Z,94381.00
2023-03-11T02:11:41.272Z,94403.00
2023-03-11T02:17:10.010Z,94379.00
2023-03-11T02:22:39.335Z,94399.00
2023-03-11T02:28:11.842Z,94396.00
2023-03-11T02:33:42.092Z,94403.00
2023-03-11T02:39:10.592Z,94395.00
2023-03-11T02:44:43.043Z,94406.00
2023-03-11T02:50:14.670Z,94420.00
2023-03-11T02:55:43.330Z,94408.00
2023-03-11T03:01:11.803Z,94409.00
2023-03-11T03:06:42.751Z,94402.00
2023-03-11T03:12:12.011Z,94427.00
2023-03-11T03:17:40.071Z,94441.00
2023-03-11T03:23:09.837Z,94441.00
2023-03-11T03:28:38.460Z,94453.00
2023-03-11T03:34:08.656Z,94465.00
2023-03-11T03:39:37.526Z,94454.00
2023-03-11T03:45:08.568Z,94459.00
2023-03-11T03:50:37.158Z,94463.00
2023-03-11T03:56:11.514Z,94456.00
2023-03-11T04:01:40.156Z,94445.00
2023-03-11T04:07:08.538Z,94458.00
2023-03-11T04:12:36.572Z,94476.00
2023-03-11T04:18:05.638Z,94467.00
2023-03-11T04:23:34.413Z,94460.00
2023-03-11T04:29:03.321Z,94461.00
2023-03-11T04:34:36.016Z,94473.00
2023-03-11T04:40:06.276Z,94465.00
2023-03-11T04:45:39.688Z,94482.00
2023-03-11T04:51:08.509Z,94472.00
2023-03-11T04:56:37.028Z,94490.00
2023-03-11T05:02:07.783Z,94500.00
2023-03-11T05:07:36.835Z,94494.00
2023-03-11T05:13:06.078Z,94493.00
2023-03-11T05:18:37.996Z,94503.00
2023-03-11T05:24:06.608Z,94512.00
2023-03-11T05:29:34.503Z,94522.00
2023-03-11T05:35:02.865Z,94531.00
2023-03-11T05:40:31.396Z,94534.00
2023-03-11T05:45:59.933Z,94541.00
2023-03-11T05:51:28.083Z,94549.00
2023-03-11T05:56:57.621Z,94555.00
2023-03-11T06:02:26.228Z,94542.00
2023-03-11T06:07:55.748Z,94537.00
2023-03-11T06:13:24.382Z,94545.00
2023-03-11T06:18:54.335Z,94555.00
2023-03-11T06:24:22.673Z,94567.00
2023-03-11T06:29:54.468Z,94582.00
2023-03-11T06:35:24.389Z,94585.00
2023-03-11T06:40:53.661Z,94584.00
2023-03-11T06:46:23.907Z,94589.00
2023-03-11T06:51:53.844Z,94595.00
2023-03-11T06:57:22.027Z,94596.00
2023-03-11T07:02:51.625Z,94615.00
2023-03-11T07:08:20.152Z,94624.00
2023-03-11T07:13:49.309Z,94635.00
2023-03-11T07:19:20.534Z,94632.00
2023-03-11T07:24:50.117Z,94647.00
2023-03-11T07:30:24.554Z,94660.00
2023-03-11T07:36:08.156Z,94663.00
2023-03-11T07:41:38.655Z,94676.00
2023-03-11T07:47:10.149Z,94680.00
2023-03-11T07:52:54.700Z,94677.00
2023-03-11T07:58:29.122Z,94702.00
2023-03-11T08:04:12.980Z,94690.00
2023-03-11T08:09:49.573Z,94712.00
2023-03-11T08:15:18.698Z,94710.00
2023-03-11T08:20:47.604Z,94706.00
2023-03-11T08:26:24.021Z,94711.00
2023-03-11T08:32:20.495Z,94735.00
2023-03-11T08:38:01.377Z,94728.00
2023-03-11T08:43:29.547Z,94742.00
2023-03-11T08:49:02.244Z,94733.00
2023-03-11T08:54:35.210Z,94734.00
2023-03-11T09:00:11.535Z,94740.00
2023-03-11T09:05:42.857Z,94753.00
2023-03-11T09:11:14.070Z,94747.00
2023-03-11T09:16:44.723Z,94751.00
2023-03-11T09:22:21.236Z,94747.00
2023-03-11T09:27:49.323Z,94749.00
2023-03-11T09:33:31.238Z,94743.00
2023-03-11T09:39:05.582Z,94746.00
2023-03-11T09:44:44.418Z,94753.00
2023-03-11T09:50:40.811Z,94748.00
2023-03-11T09:56:20.892Z,94753.00
2023-03-11T10:01:51.786Z,94754.00
2023-03-11T10:07:29.043Z,94768.00
2023-03-11T10:13:13.466Z,94775.00
2023-03-11T10:18:50.275Z,94778.00
2023-03-11T10:24:55.077Z,94777.00
2023-03-11T10:30:32.548Z,94782.00
2023-03-11T10:36:07.451Z,94782.00
2023-03-11T10:41:55.426Z,94794.00
2023-03-11T10:47:25.843Z,94780.00
2023-03-11T10:53:19.718Z,94794.00
2023-03-11T10:58:50.695Z,94800.00
2023-03-11T11:04:31.124Z,94796.00
2023-03-11T11:10:21.698Z,94803.00
2023-03-11T11:16:00.012Z,94801.00
2023-03-11T11:21:43.352Z,94799.00
2023-03-11T11:27:28.627Z,94795.00
2023-03-11T11:32:57.038Z,94805.00
2023-03-11T11:38:28.349Z,94806.00
2023-03-11T11:44:06.377Z,94786.00
2023-03-11T11:49:36.994Z,94792.00
2023-03-11T11:55:20.523Z,94787.00
2023-03-11T12:01:17.124Z,94791.00
2023-03-11T12:07:13.084Z,94786.00
2023-03-11T12:13:16.471Z,94789.00
2023-03-11T12:19:05.187Z,94770.00
2023-03-11T12:25:01.833Z,94764.00
2023-03-11T12:30:36.881Z,94769.00
2023-03-11T12:36:07.179Z,94775.00
2023-03-11T12:41:43.067Z,94765.00
2023-03-11T12:47:10.961Z,94759.00
2023-03-11T12:52:55.906Z,94762.00
2023-03-11T12:59:11.450Z,94757.00
2023-03-11T13:05:23.150Z,94749.00
2023-03-11T13:10:55.953Z,94756.00
2023-03-11T13:16:24.147Z,94749.00
2023-03-11T13:21:53.289Z,94758.00
2023-03-11T13:27:37.161Z,94764.00
2023-03-11T13:33:37.034Z,94777.00
2023-03-11T13:39:12.635Z,94780.00
2023-03-11T13:44:42.050Z,94782.00
2023-03-11T13:50:21.324Z,94791.00
2023-03-11T13:55:50.280Z,94799.00
2023-03-11T14:01:19.330Z,94801.00
2023-03-11T14:06:47.850Z,94800.00
2023-03-11T14:12:18.613Z,94804.00
2023-03-11T14:17:48.764Z,94784.00
2023-03-11T14:23:19.994Z,94785.00
2023-03-11T14:28:52.666Z,94779.00
2023-03-11T14:34:25.548Z,94789.00
2023-03-11T14:39:54.282Z,94780.00
2023-03-11T14:45:25.515Z,94781.00
2023-03-11T14:50:56.978Z,94780.00
2023-03-11T14:56:27.677Z,94782.00
2023-03-11T15:02:24.285Z,94795.00
2023-03-11T15:07:59.991Z,94809.00
2023-03-11T15:13:27.832Z,94829.00
2023-03-11T15:18:56.258Z,94825.00
2023-03-11T15:24:30.063Z,94855.00
2023-03-11T15:29:59.388Z,94844.00
2023-03-11T15:35:31.162Z,94853.00
2023-03-11T15:41:02.447Z,94859.00
2023-03-11T15:46:30.865Z,94858.00
2023-03-11T15:52:03.768Z,94860.00
2023-03-11T15:57:32.255Z,94865.00
2023-03-11T16:03:01.782Z,94879.00
2023-03-11T16:08:30.304Z,94886.00
2023-03-11T16:13:58.969Z,94881.00
2023-03-11T16:19:30.405Z,94876.00
2023-03-11T16:25:04.129Z,94877.00
2023-03-11T16:30:35.583Z,94882.00
2023-03-11T16:36:07.121Z,94880.00
2023-03-11T16:41:45.202Z,94912.00
2023-03-11T16:47:14.836Z,94905.00
2023-03-11T16:52:42.916Z,94913.00
2023-03-11T16:58:12.169Z,94924.00
2023-03-11T17:03:42.736Z,94922.00
2023-03-11T17:09:11.769Z,94923.00
2023-03-11T17:14:40.511Z,94939.00
2023-03-11T17:20:10.160Z,94953.00
2023-03-11T17:25:42.042Z,94967.00
2023-03-11T17:31:15.509Z,94988.00
2023-03-11T17:36:43.646Z,94990.00
2023-03-11T17:42:14.294Z,94994.00
2023-03-11T17:47:44.298Z,95023.00
2023-03-11T17:53:12.600Z,95004.00
2023-03-11T17:58:40.885Z,94994.00
2023-03-11T18:04:09.076Z,95012.00
2023-03-11T18:09:37.565Z,95009.00
2023-03-11T18:15:12.055Z,95023.00
2023-03-11T18:20:40.545Z,95031.00
2023-03-11T18:26:11.098Z,95028.00
2023-03-11T18:31:41.777Z,95028.00
2023-03-11T18:37:10.513Z,95040.00
2023-03-11T18:42:38.654Z,95040.00
2023-03-11T18:48:07.022Z,95043.00
2023-03-11T18:53:35.809Z,95052.00
2023-03-11T18:59:03.715Z,95059.00
2023-03-11T19:04:33.076Z,95060.00
2023-03-11T19:10:01.606Z,95061.00
2023-03-11T19:15:30.353Z,95057.00
2023-03-11T19:21:02.254Z,95067.00
2023-03-11T19:26:44.244Z,95078.00
2023-03-11T19:32:13.779Z,95077.00
2023-03-11T19:37:42.009Z,95078.00
2023-03-11T19:43:10.864Z,95091.00
2023-03-11T19:48:42.461Z,95101.00
2023-03-11T19:54:11.886Z,95105.00
2023-03-11T19:59:40.073Z,95106.00
2023-03-11T20:05:09.161Z,95114.00
2023-03-11T20:10:46.333Z,95105.00
2023-03-11T20:16:18.866Z,95109.00
2023-03-11T20:21:47.535Z,95126.00
2023-03-11T20:27:15.694Z,95133.00
2023-03-11T20:32:43.831Z,95129.00
2023-03-11T20:38:13.169Z,95129.00
2023-03-11T20:43:41.449Z,95132.00
2023-03-11T20:49:09.801Z,95130.00
2023-03-11T20:54:38.070Z,95125.00
2023-03-11T21:00:11.533Z,95126.00
2023-03-11T21:05:39.697Z,95127.00
2023-03-11T21:11:08.569Z,95126.00
2023-03-11T21:16:37.887Z,95136.00
2023-03-11T21:22:06.977Z,95134.00
2023-03-11T21:27:35.517Z,95138.00
2023-03-11T21:33:04.062Z,95129.00
2023-03-11T21:38:32.410Z,95145.00
2023-03-11T21:44:00.911Z,95142.00
2023-03-11T21:49:29.247Z,95139.00
2023-03-11T21:54:57.463Z,95145.00
2023-03-11T22:00:25.499Z,95145.00
2023-03-11T22:06:01.696Z,95141.00
2023-03-11T22:11:30.175Z,95143.00
2023-03-11T22:16:58.710Z,95136.00
2023-03-11T22:22:27.174Z,95135.00
2023-03-11T22:27:56.941Z,95144.00
2023-03-11T22:33:25.619Z,95138.00
2023-03-11T22:38:54.193Z,95144.00
2023-03-11T22:44:22.058Z,95150.00
2023-03-11T22:49:50.295Z,95150.00
2023-03-11T22:55:18.089Z,95155.00
2023-03-11T23:00:46.177Z,95148.00
2023-03-11T23:06:17.989Z,95153.00
2023-03-11T23:11:46.848Z,95159.00
2023-03-11T23:17:15.808Z,95174.00
2023-03-11T23:22:44.549Z,95175.00
2023-03-11T23:28:12.950Z,95184.00
2023-03-11T23:33:42.078Z,95178.00
2023-03-11T23:39:10.326Z,95176.00
2023-03-11T23:44:38.409Z,95180.00
2023-03-11T23:50:06.915Z,95169.00
2023-03-11T23:55:38.504Z,95173.00
